LFMN 210130Z 34009KT 320V020 CAVOK 17/12 Q1018 NOSIG LFMN 210100Z 35009KT 330V030 CAVOK 17/12 Q1018 NOSIG LFMN 210030Z 35009KT CAVOK 18/12 Q1018 NOSIG LFMN 210000Z 34009KT CAVOK 19/12 Q1017 NOSIG LFMN 202330Z 34011KT CAVOK 18/12 Q1017 NOSIG LFMN 202300Z 33010KT CAVOK 18/12 Q1017 NOSIG LFMN 202230Z 34008KT CAVOK 18/13 Q1017 NOSIG LFMN 202200Z 35010KT CAVOK 19/13 Q1017 NOSIG LFMN 202130Z 33008KT CAVOK 19/13 Q1017 NOSIG LFMN 202100Z 34008KT 320V020 9999 SCT090 19/13 Q1016 NOSIG LFMN 202030Z 34009KT 9999 FEW023 SCT093 19/13 Q1016 NOSIG LFMN 202000Z 33010KT 9999 FEW023 SCT060 BKN130 19/14 Q1016 RETSRA NOSIG LFMN 201930Z 28008KT 240V330 9999 FEW023 FEW050CB SCT060 BKN070 20/15 Q1016 RETSRA NOSIG LFMN 201900Z 01007KT 9999 -RA SCT023 FEW050CB SCT060 OVC070 20/18 Q1015 RETSRA NOSIG LFMN 201830Z 29003KT 260V320 6000 -TSRA SCT023 FEW050CB BKN060 OVC090 20/18 Q1015 NOSIG LFMN 201800Z 36004KT 310V050 4000 -TSRA SCT023 FEW050CB OVC060 20/17 Q1015 NOSIG LFMN 201730Z 07011KT 9999 -TSRA FEW050CB BKN060 BKN240 22/18 Q1014 NOSIG LFMN 201700Z 10011KT 9999 -SHRA FEW050CB SCT059 BKN240 23/17 Q1014 RETS NOSIG LFMN 201636Z 11011KT 9999 -SHRA FEW050CB SCT060 BKN240 23/17 Q1014 RETS NOSIG LFMN 201630Z 11010KT 9999 VCTS FEW050CB SCT060 BKN240 23/17 Q1013 NOSIG LFMN 201600Z 12009KT 9999 FEW050CB SCT063 BKN240 23/17 Q1013 NOSIG LFMN 201530Z 13009KT 9999 FEW050TCU SCT260 23/17 Q1013 NOSIG LFMN 201500Z 13008KT 9999 FEW050TCU 24/17 Q1013 NOSIG LFMN 201430Z 16008KT 9999 FEW046 24/17 Q1012 NOSIG LFMN 201400Z 18009KT 9999 FEW040 24/16 Q1012 NOSIG LFMN 201330Z 18008KT 9999 FEW040 24/14 Q1013 NOSIG LFMN 201300Z 18007KT 9999 FEW040 24/15 Q1013 NOSIG LFMN 201230Z 19007KT 9999 FEW030 24/14 Q1013 NOSIG LFMN 201200Z 19008KT 9999 FEW030 24/14 Q1013 NOSIG LFMN 201130Z 18006KT 9999 FEW030 24/13 Q1013 NOSIG LFMN 201100Z 19005KT 9999 FEW025 SCT210 24/13 Q1013 NOSIG LFMN 201030Z 19005KT 9999 FEW025 24/14 Q1013 NOSIG LFMN 201000Z 15004KT CAVOK 24/15 Q1013 NOSIG LFMN 200930Z 13003KT CAVOK 24/13 Q1013 NOSIG LFMN 200900Z 32005KT 220V010 9999 FEW030 24/09 Q1013 NOSIG LFMN 200830Z 33005KT 290V350 CAVOK 23/08 Q1012 NOSIG LFMN 200800Z 34007KT CAVOK 22/08 Q1012 NOSIG LFMN 200730Z 34007KT CAVOK 21/08 Q1012 NOSIG LFMN 200700Z 34008KT CAVOK 19/08 Q1012 NOSIG LFMN 200630Z 34008KT CAVOK 18/07 Q1012 NOSIG LFMN 200600Z 35009KT 330V030 CAVOK 18/08 Q1011 NOSIG LFMN 200530Z 35006KT 320V080 CAVOK 18/07 Q1011 NOSIG LFMN 200500Z 35008KT CAVOK 18/07 Q1011 NOSIG LFMN 200430Z 34006KT CAVOK 18/07 Q1011 NOSIG LFMN 200400Z 34007KT CAVOK 18/07 Q1011 NOSIG LFMN 200330Z 34006KT CAVOK 18/07 Q1011 NOSIG LFMN 200300Z 00000KT CAVOK 18/07 Q1011 NOSIG LFMN 200230Z 35004KT 320V020 CAVOK 19/07 Q1011 NOSIG LFMN 200200Z 33006KT CAVOK 19/07 Q1011 NOSIG LFMN 200130Z 33005KT CAVOK 19/07 Q1011 NOSIG LFMN 200100Z 33005KT CAVOK 20/07 Q1011 NOSIG LFMN 200030Z 33006KT CAVOK 20/07 Q1011 NOSIG LFMN 200000Z 34008KT 310V030 CAVOK 20/08 Q1011 NOSIG LFMN 192330Z 36008KT CAVOK 20/08 Q1011 NOSIG LFMN 192300Z 34006KT 320V020 CAVOK 20/08 Q1011 NOSIG LFMN 192230Z 33006KT CAVOK 20/08 Q1011 NOSIG LFMN 192200Z VRB03KT CAVOK 21/08 Q1011 NOSIG LFMN 192130Z 31005KT CAVOK 21/08 Q1010 NOSIG LFMN 192100Z 27005KT CAVOK 21/08 Q1010 NOSIG LFMN 192030Z 34004KT 310V020 CAVOK 22/08 Q1010 NOSIG LFMN 192000Z 03008KT CAVOK 23/08 Q1010 NOSIG LFMN 191930Z 02007KT CAVOK 23/07 Q1009 NOSIG LFMN 191900Z 04004KT 020V080 CAVOK 23/09 Q1009 NOSIG LFMN 191830Z 29003KT 9999 FEW073 23/10 Q1008 NOSIG LFMN 191800Z 27007KT 9999 FEW073 23/09 Q1008 NOSIG LFMN 191730Z 29010KT 9999 FEW020 24/10 Q1007 NOSIG LFMN 191700Z 27014KT 9999 FEW020 25/10 Q1007 NOSIG LFMN 191630Z 26014KT 240V300 9999 FEW020 26/09 Q1007 NOSIG LFMN 191600Z 25019KT 9999 FEW020 26/10 Q1006 NOSIG LFMN 191530Z 27019KT 9999 FEW020 27/10 Q1006 NOSIG LFMN 191500Z 27021KT 9999 FEW030 27/09 Q1006 NOSIG LFMN 191430Z 28020KT 9999 FEW030 27/11 Q1006 NOSIG LFMN 191400Z 27020KT 9999 FEW030 27/10 Q1006 NOSIG

METAR Messwerte

Zurück zur Übersicht

Ort
m ü. NN
Zeit Temperatur Taupunkt Rel.
Luftfeuchte
Luftdruck:
Altimeter
NN
Station
Wind in Beaufort
(Knoten)
Sichtweite
(Meter)
Wolken
(Meter über Grund)
Wettererscheinung
Nizza
10
Di 21.09. 03:30171272 %1018
1018
1017
NNW 3 (9)
NW - NNO
>= 10000Nicht signifikant 
Nizza
10
Di 21.09. 03:00171272 %1018
1018
1017
N 3 (9)
NNW - NNO
>= 10000Nicht signifikant 
Nizza
10
Di 21.09. 02:30181268 %1018
1018
1017
N 3 (9)>= 10000Nicht signifikant 
Nizza
10
Di 21.09. 02:00191264 %1017
1017
1016
NNW 3 (9)>= 10000Nicht signifikant 
Nizza
10
Di 21.09. 01:30181268 %1017
1017
1016
NNW 4 (11)>= 10000Nicht signifikant 
Nizza
10
Di 21.09. 01:00181268 %1017
1017
1016
NNW 3 (10)>= 10000Nicht signifikant 
Nizza
10
Di 21.09. 00:30181373 %1017
1017
1016
NNW 3 (8)>= 10000Nicht signifikant 
Nizza
10
Di 21.09. 00:00191368 %1017
1017
1016
N 3 (10)>= 10000Nicht signifikant 
Nizza
10
Mo 20.09. 23:30191368 %1017
1017
1016
NNW 3 (8)>= 10000Nicht signifikant 
Nizza
10
Mo 20.09. 23:00191368 %1016
1016
1015
NNW 3 (8)
NW - NNO
>= 10000Wolkig (2700) 
Nizza
10
Mo 20.09. 22:30191368 %1016
1016
1015
NNW 3 (9)>= 10000Wolkig (2800)
Leicht bewölkt (700)
 
Nizza
10
Mo 20.09. 22:00191473 %1016
1016
1015
NNW 3 (10)>= 10000Stark bewölkt (4000)
Wolkig (1800)
Leicht bewölkt (700)
 
Nizza
10
Mo 20.09. 21:30201573 %1016
1016
1015
W 3 (8)
WSW - NNW
>= 10000Stark bewölkt (2100)
Wolkig (1800)
Leicht bewölkt Cb (1500)
Leicht bewölkt (700)
 
Nizza
10
Mo 20.09. 21:00201888 %1015
1015
1014
N 3 (7)>= 10000Bedeckt (2100)
Wolkig (1800)
Leicht bewölkt Cb (1500)
Wolkig (700)
Regen (schwach)
Nizza
10
Mo 20.09. 20:30201888 %1015
1015
1014
WNW 2 (3)
W - NW
6000Bedeckt (2700)
Stark bewölkt (1800)
Leicht bewölkt Cb (1500)
Wolkig (700)
Gewitter mit Regen (schwach)
Nizza
10
Mo 20.09. 20:00201783 %1015
1015
1014
N 2 (4)
NW - NO
4000Bedeckt (1800)
Leicht bewölkt Cb (1500)
Wolkig (700)
Gewitter mit Regen (schwach)
Nizza
10
Mo 20.09. 19:30221878 %1014
1014
1013
ONO 4 (11)>= 10000Stark bewölkt (7300)
Stark bewölkt (1800)
Leicht bewölkt Cb (1500)
Gewitter mit Regen (schwach)
Nizza
10
Mo 20.09. 19:00231769 %1014
1014
1013
O 4 (11)>= 10000Stark bewölkt (7300)
Wolkig (1800)
Leicht bewölkt Cb (1500)
Regen-Schauer (schwach)
Nizza
10
Mo 20.09. 18:36231769 %1014
1014
1013
OSO 4 (11)>= 10000Stark bewölkt (7300)
Wolkig (1800)
Leicht bewölkt Cb (1500)
Regen-Schauer (schwach)
Nizza
10
Mo 20.09. 18:30231769 %1013
1013
1012
OSO 3 (10)>= 10000Stark bewölkt (7300)
Wolkig (1800)
Leicht bewölkt Cb (1500)
 
Nizza
10
Mo 20.09. 18:00231769 %1013
1013
1012
OSO 3 (9)>= 10000Stark bewölkt (7300)
Wolkig (1900)
Leicht bewölkt Cb (1500)
 
Nizza
10
Mo 20.09. 17:30231769 %1013
1013
1012
SO 3 (9)>= 10000Wolkig (7900)
Leicht bewölkt (1500)
 
Nizza
10
Mo 20.09. 17:00241765 %1013
1013
1012
SO 3 (8)>= 10000Leicht bewölkt (1500) 
Nizza
10
Mo 20.09. 16:30241765 %1012
1012
1011
SSO 3 (8)>= 10000Leicht bewölkt (1400) 
Nizza
10
Mo 20.09. 16:00241661 %1012
1012
1011
S 3 (9)>= 10000Leicht bewölkt (1200) 
Nizza
10
Mo 20.09. 15:30241454 %1013
1013
1012
S 3 (8)>= 10000Leicht bewölkt (1200) 
Nizza
10
Mo 20.09. 15:00241557 %1013
1013
1012
S 3 (7)>= 10000Leicht bewölkt (1200) 
Nizza
10
Mo 20.09. 14:30241454 %1013
1013
1012
S 3 (7)>= 10000Leicht bewölkt (910) 
Nizza
10
Mo 20.09. 14:00241454 %1013
1013
1012
S 3 (8)>= 10000Leicht bewölkt (910) 
Nizza
10
Mo 20.09. 13:30241350 %1013
1013
1012
S 2 (6)>= 10000Leicht bewölkt (910) 
Nizza
10
Mo 20.09. 13:00241350 %1013
1013
1012
S 2 (5)>= 10000Wolkig (6400)
Leicht bewölkt (760)
 
Nizza
10
Mo 20.09. 12:30241454 %1013
1013
1012
S 2 (5)>= 10000Leicht bewölkt (760) 
Nizza
10
Mo 20.09. 12:00241557 %1013
1013
1012
SSO 2 (4)>= 10000Nicht signifikant 
Nizza
10
Mo 20.09. 11:30241350 %1013
1013
1012
SO 2 (3)>= 10000Nicht signifikant 
Nizza
10
Mo 20.09. 11:0024938 %1013
1013
1012
NW 2 (5)
SW - N
>= 10000Leicht bewölkt (910) 
Nizza
10
Mo 20.09. 10:3023838 %1012
1012
1011
NNW 2 (5)
WNW - N
>= 10000Nicht signifikant 
Nizza
10
Mo 20.09. 10:0022841 %1012
1012
1011
NNW 3 (7)>= 10000Nicht signifikant 
Nizza
10
Mo 20.09. 09:3021843 %1012
1012
1011
NNW 3 (7)>= 10000Nicht signifikant 
Nizza
10
Mo 20.09. 09:0019849 %1012
1012
1011
NNW 3 (8)>= 10000Nicht signifikant 
Nizza
10
Mo 20.09. 08:3018749 %1012
1012
1011
NNW 3 (8)>= 10000Nicht signifikant 
Nizza
10
Mo 20.09. 08:0018852 %1011
1011
1010
N 3 (9)
NNW - NNO
>= 10000Nicht signifikant 
Nizza
10
Mo 20.09. 07:3018749 %1011
1011
1010
N 2 (6)
NW - O
>= 10000Nicht signifikant 
Nizza
10
Mo 20.09. 07:0018749 %1011
1011
1010
N 3 (8)>= 10000Nicht signifikant 
Nizza
10
Mo 20.09. 06:3018749 %1011
1011
1010
NNW 2 (6)>= 10000Nicht signifikant 
Nizza
10
Mo 20.09. 06:0018749 %1011
1011
1010
NNW 3 (7)>= 10000Nicht signifikant 
Nizza
10
Mo 20.09. 05:3018749 %1011
1011
1010
NNW 2 (6)>= 10000Nicht signifikant 
Nizza
10
Mo 20.09. 05:0018749 %1011
1011
1010
Windstill>= 10000Nicht signifikant 
Nizza
10
Mo 20.09. 04:3019746 %1011
1011
1010
N 2 (4)
NW - NNO
>= 10000Nicht signifikant 
Nizza
10
Mo 20.09. 04:0019746 %1011
1011
1010
NNW 2 (6)>= 10000Nicht signifikant 
Nizza
10
Mo 20.09. 03:3019746 %1011
1011
1010
NNW 2 (5)>= 10000Nicht signifikant 
Nizza
10
Mo 20.09. 03:0020743 %1011
1011
1010
NNW 2 (5)>= 10000Nicht signifikant 
Nizza
10
Mo 20.09. 02:3020743 %1011
1011
1010
NNW 2 (6)>= 10000Nicht signifikant 
Nizza
10
Mo 20.09. 02:0020846 %1011
1011
1010
NNW 3 (8)
NW - NNO
>= 10000Nicht signifikant 
Nizza
10
Mo 20.09. 01:3020846 %1011
1011
1010
N 3 (8)>= 10000Nicht signifikant 
Nizza
10
Mo 20.09. 01:0020846 %1011
1011
1010
NNW 2 (6)
NW - NNO
>= 10000Nicht signifikant 
Nizza
10
Mo 20.09. 00:3020846 %1011
1011
1010
NNW 2 (6)>= 10000Nicht signifikant 
Nizza
10
Mo 20.09. 00:0021843 %1011
1011
1010
Uml 2 (3)>= 10000Nicht signifikant 
Nizza
10
So 19.09. 23:3021843 %1010
1010
1009
NW 2 (5)>= 10000Nicht signifikant 
Nizza
10
So 19.09. 23:0021843 %1010
1010
1009
W 2 (5)>= 10000Nicht signifikant 
Nizza
10
So 19.09. 22:3022841 %1010
1010
1009
NNW 2 (4)
NW - NNO
>= 10000Nicht signifikant 
Nizza
10
So 19.09. 22:0023838 %1010
1010
1009
NNO 3 (8)>= 10000Nicht signifikant 
Nizza
10
So 19.09. 21:3023736 %1009
1009
1008
NNO 3 (7)>= 10000Nicht signifikant 
Nizza
10
So 19.09. 21:0023941 %1009
1009
1008
NO 2 (4)
NNO - O
>= 10000Nicht signifikant 
Nizza
10
So 19.09. 20:30231044 %1008
1008
1007
WNW 2 (3)>= 10000Leicht bewölkt (2200) 
Nizza
10
So 19.09. 20:0023941 %1008
1008
1007
W 3 (7)>= 10000Leicht bewölkt (2200) 
Nizza
10
So 19.09. 19:30241041 %1007
1007
1006
WNW 3 (10)>= 10000Leicht bewölkt (610) 
Nizza
10
So 19.09. 19:00251039 %1007
1007
1006
W 4 (14)>= 10000Leicht bewölkt (610) 
Nizza
10
So 19.09. 18:3026934 %1007
1007
1006
W 4 (14)
WSW - WNW
>= 10000Leicht bewölkt (610) 
Nizza
10
So 19.09. 18:00261037 %1006
1006
1005
WSW 5 (19)>= 10000Leicht bewölkt (610) 
Nizza
10
So 19.09. 17:30271034 %1006
1006
1005
W 5 (19)>= 10000Leicht bewölkt (610) 
Nizza
10
So 19.09. 17:0027932 %1006
1006
1005
W 6 (21)>= 10000Leicht bewölkt (910) 
Nizza
10
So 19.09. 16:30271137 %1006
1006
1005
W 5 (20)>= 10000Leicht bewölkt (910) 
Nizza
10
So 19.09. 16:00271034 %1006
1006
1005
W 5 (20)>= 10000Leicht bewölkt (910) 

Altimeter: Einstellung am Altimeter (Höhenmesser), die Höhe 0 muss auf diesen Luftdruckwert zeigen, damit das Gerät die Stationshöhe richtig anzeigt.

NN: Luftdruck reduziert auf "Normal Null", auf Meereshöhe, dieser von der Temperatur abhängige Wert wird bisweilen unkorrekt einfach als "Luftdruck" bezeichnet. Eigentlich nur eine fiktive Größe, die es erlaubt, Stationen auf unterschiedlichen Höhen miteinander zu vergleichen.

Station: Realer Luftdruck an der Station.